Meteo Giornale » Osservazioni meteo Stati Uniti (USA) » Pascagoula Lott
ore: 12:53 - Osservazioni Meteo Pascagoula Lott
Lat. 30° 27' N Lon. 88° 31' W Alt. 5 metri s.l.m.
32 °C
Molto Nuvoloso
Temp. 24 Ore
23 °C
32 °C
Sud-Est
7.4 Km/h
Dew point 24 °C
Umidità 62 %
Visibilità 10 Km
Il sole sorge alle ore 06:30
Il sole tramonta alle ore 19:17
| Data e Ora | Cielo e Fenomeni | T °C | DP °C | Um. % | Pres. hPa | Vis. km | Vento km/h | |
|---|---|---|---|---|---|---|---|---|
| Oggi h: 12:53 | Molto Nuvoloso | 32 | 24 | 62 | 1017 | 10 | SE 7.4 | |
| Oggi h: 11:53 | Sereno | 32 | 24 | 62 | 1018 | 10 | E 9.3 | |
| Oggi h: 10:53 | Molto Nuvoloso | 31 | 24 | 66 | 1018 | 10 | N 0 | |
| Oggi h: 09:53 | Sereno | 30 | 26 | 79 | 1018 | 10 | E/NE 13 | |
| Oggi h: 08:53 | Sereno | 27 | 26 | 94 | 1018 | 10 | E/NE 9.3 | |
| Oggi h: 07:53 | Sereno | 26 | 25 | 94 | 1018 | 10 | N 5.5 | |
| Oggi h: 06:53 | Sereno | 24 | 24 | 100 | 1017 | 10 | N 5.5 | |
| Oggi h: 05:53 | Sereno | 24 | 24 | 100 | 1017 | 10 | N 5.5 | |
| Oggi h: 05:37 | Foschia | 23 | 23 | 100 | 1016 | 8 | N 5.5 | |
| Oggi h: 05:28 | Foschia | 23 | 23 | 100 | 1016 | 2 | N 5.5 | |
| Oggi h: 05:21 | Foschia | 23 | 23 | 100 | 1016 | 5 | N 0 | |
| Oggi h: 04:53 | Foschia | 23 | 23 | 100 | 1016 | 2 | N 0 | |
| Oggi h: 04:49 | Foschia | 23 | 23 | 100 | 1016 | 5 | N 0 | |
| Oggi h: 03:59 | Foschia | 23 | 23 | 100 | 1016 | 5 | N 5.5 | |
| Oggi h: 03:53 | Foschia | 23 | 23 | 100 | 1016 | 2 | N 0 | |
| Oggi h: 03:32 | Foschia | 23 | 23 | 100 | 1016 | 5 | N 0 | |
| Oggi h: 03:08 | Foschia | 23 | 23 | 100 | 1016 | 5 | N 0 | |
| Oggi h: 02:53 | Foschia | 23 | 23 | 100 | 1016 | 3 | N 0 | |
| Oggi h: 02:51 | Foschia | 23 | 23 | 100 | 1016 | 5 | N 5.5 | |
| Oggi h: 02:46 | Foschia | 24 | 23 | 94 | 1016 | 5 | N 0 | |
| Oggi h: 01:53 | Sereno | 23 | 23 | 100 | 1016 | 11 | N 0 | |
| Oggi h: 01:26 | Foschia | 23 | 23 | 100 | 1016 | 6 | N 5.5 | |
| Oggi h: 01:05 | Foschia | 23 | 23 | 100 | 1016 | 5 | N 0 | |
| Oggi h: 00:53 | Foschia | 24 | 23 | 94 | 1017 | 10 | N 0 | |
| Oggi h: 00:50 | Foschia | 24 | 24 | 100 | 1017 | 5 | N 0 | |
| Oggi h: 00:36 | Foschia | 23 | 23 | 100 | 1017 | 5 | N 0 | |
| Oggi h: 00:18 | Foschia | 24 | 24 | 100 | 1017 | 5 | N 0 | |
| Ieri h: 23:53 | Foschia | 24 | 24 | 100 | 1017 | 5 | N 0 | |
| Ieri h: 22:53 | Sereno | 24 | 24 | 100 | 1017 | 10 | N 0 | |
| Ieri h: 21:53 | Sereno | 26 | 25 | 94 | 1017 | 10 | N 0 | |
| Ieri h: 20:53 | Sereno | 25 | 25 | 100 | 1016 | 10 | N 0 | |
| Ieri h: 19:53 | Sereno | 26 | 25 | 94 | 1016 | 10 | N 0 | |
| Ieri h: 18:53 | Sereno | 28 | 25 | 83 | 1015 | 10 | SE 7.4 | |
| Ieri h: 17:53 | Sereno | 30 | 24 | 70 | 1016 | 10 | N 5.5 | |
| Ieri h: 16:53 | Molto Nuvoloso | 29 | 25 | 79 | 1016 | 10 | SE 11.1 | |
| Ieri h: 15:53 | Poco Nuvoloso | 31 | 25 | 70 | 1016 | 10 | SE 13 | |
| Ieri h: 14:53 | Sereno | 30 | 25 | 74 | 1017 | 10 | E/NE 9.3 | |
| Ieri h: 14:02 | Pioggia | 26 | 24 | 88 | 1017 | 10 | N 7.4 | |
| Ieri h: 13:53 | Temporale Foschia | 26 | 24 | 88 | 1017 | 10 | N/NE 13 | |



